createdAt,value
2022-12-27T00:00:18.362Z,1012.91
2022-12-27T00:01:18.350Z,1012.89
2022-12-27T00:02:18.426Z,1012.95
2022-12-27T00:03:18.411Z,1012.95
2022-12-27T00:04:18.318Z,1012.94
2022-12-27T00:05:18.318Z,1012.92
2022-12-27T00:06:18.293Z,1012.92
2022-12-27T00:07:18.283Z,1012.91
2022-12-27T00:08:18.289Z,1012.91
2022-12-27T00:09:18.262Z,1012.92
2022-12-27T00:10:18.276Z,1012.93
2022-12-27T00:11:18.243Z,1012.92
2022-12-27T00:12:18.239Z,1012.95
2022-12-27T00:13:18.217Z,1012.94
2022-12-27T00:14:18.204Z,1013.01
2022-12-27T00:15:18.194Z,1013.04
2022-12-27T00:16:18.249Z,1013.04
2022-12-27T00:17:18.177Z,1013.07
2022-12-27T00:18:18.168Z,1013.07
2022-12-27T00:19:18.148Z,1013.11
2022-12-27T00:20:18.176Z,1013.17
2022-12-27T00:21:18.126Z,1013.16
2022-12-27T00:22:18.118Z,1013.16
2022-12-27T00:23:18.110Z,1013.16
2022-12-27T00:24:18.094Z,1013.21
2022-12-27T00:25:18.081Z,1013.21
2022-12-27T00:26:18.100Z,1013.19
2022-12-27T00:27:18.074Z,1013.22
2022-12-27T00:28:18.054Z,1013.20
2022-12-27T00:29:18.045Z,1013.19
2022-12-27T00:30:18.024Z,1013.27
2022-12-27T00:31:18.037Z,1013.28
2022-12-27T00:32:18.005Z,1013.25
2022-12-27T00:33:17.994Z,1013.31
2022-12-27T00:34:17.983Z,1013.33
2022-12-27T00:35:18.006Z,1013.39
2022-12-27T00:36:17.966Z,1013.36
2022-12-27T00:37:17.955Z,1013.36
2022-12-27T00:38:17.936Z,1013.39
2022-12-27T00:39:17.958Z,1013.40
2022-12-27T00:40:17.910Z,1013.46
2022-12-27T00:41:17.911Z,1013.43
2022-12-27T00:42:17.912Z,1013.48
2022-12-27T00:43:17.884Z,1013.48
2022-12-27T00:44:17.870Z,1013.44
2022-12-27T00:45:17.864Z,1013.47
2022-12-27T00:46:17.849Z,1013.47
2022-12-27T00:47:17.854Z,1013.45
2022-12-27T00:48:17.826Z,1013.43
2022-12-27T00:49:17.819Z,1013.43
2022-12-27T00:50:17.805Z,1013.41
2022-12-27T00:51:17.795Z,1013.46
2022-12-27T00:52:17.791Z,1013.43
2022-12-27T00:53:17.788Z,1013.45
2022-12-27T00:54:17.758Z,1013.45
2022-12-27T00:55:17.748Z,1013.46
2022-12-27T00:56:17.765Z,1013.51
2022-12-27T00:57:17.726Z,1013.51
2022-12-27T00:58:17.740Z,1013.48
2022-12-27T00:59:17.708Z,1013.50
2022-12-27T01:00:17.705Z,1013.48
2022-12-27T01:01:17.810Z,1013.51
2022-12-27T01:02:17.688Z,1013.50
2022-12-27T01:03:17.668Z,1013.50
2022-12-27T01:04:17.651Z,1013.54
2022-12-27T01:05:17.659Z,1013.53
2022-12-27T01:06:17.633Z,1013.59
2022-12-27T01:07:17.613Z,1013.52
2022-12-27T01:08:17.601Z,1013.60
2022-12-27T01:09:17.592Z,1013.63
2022-12-27T01:10:17.579Z,1013.68
2022-12-27T01:11:17.599Z,1013.71
2022-12-27T01:12:17.555Z,1013.66
2022-12-27T01:13:17.547Z,1013.69
2022-12-27T01:14:17.555Z,1013.72
2022-12-27T01:15:17.522Z,1013.72
2022-12-27T01:16:17.603Z,1013.73
2022-12-27T01:17:17.505Z,1013.74
2022-12-27T01:18:17.490Z,1013.79
2022-12-27T01:19:17.477Z,1013.79
2022-12-27T01:20:17.476Z,1013.83
2022-12-27T01:21:17.465Z,1013.86
2022-12-27T01:22:17.459Z,1013.91
2022-12-27T01:23:17.455Z,1013.93
2022-12-27T01:24:17.425Z,1013.91
2022-12-27T01:25:17.411Z,1013.94
2022-12-27T01:26:17.401Z,1014.00
2022-12-27T01:27:17.389Z,1014.04
2022-12-27T01:28:17.382Z,1014.01
2022-12-27T01:29:17.388Z,1014.02
2022-12-27T01:30:17.384Z,1014.05
2022-12-27T01:31:17.389Z,1014.05
2022-12-27T01:32:17.335Z,1014.05
2022-12-27T01:33:17.321Z,1014.06
2022-12-27T01:34:17.316Z,1014.06
2022-12-27T01:35:17.304Z,1014.15
2022-12-27T01:36:17.286Z,1014.17
2022-12-27T01:37:17.277Z,1014.16
2022-12-27T01:38:17.265Z,1014.15
2022-12-27T01:39:17.254Z,1014.16
2022-12-27T01:40:17.244Z,1014.20
2022-12-27T01:41:17.237Z,1014.21
2022-12-27T01:42:17.230Z,1014.19
2022-12-27T01:43:17.205Z,1014.19
2022-12-27T01:44:17.199Z,1014.16
2022-12-27T01:45:17.187Z,1014.11
2022-12-27T01:46:17.258Z,1014.16
2022-12-27T01:47:17.195Z,1014.18
2022-12-27T01:48:17.155Z,1014.12
2022-12-27T01:49:17.154Z,1014.11
2022-12-27T01:50:17.134Z,1014.15
2022-12-27T01:51:17.120Z,1014.12
2022-12-27T01:52:17.111Z,1014.06
2022-12-27T01:53:17.112Z,1014.11
2022-12-27T01:54:17.085Z,1014.10
2022-12-27T01:55:17.076Z,1014.13
2022-12-27T01:56:17.066Z,1014.19
2022-12-27T01:57:17.052Z,1014.11
2022-12-27T01:58:17.040Z,1014.17
2022-12-27T01:59:17.036Z,1014.19
2022-12-27T02:00:17.016Z,1014.23
2022-12-27T02:01:17.201Z,1014.26
2022-12-27T02:02:17.208Z,1014.25
2022-12-27T02:03:17.055Z,1014.22
2022-12-27T02:04:16.991Z,1014.28
2022-12-27T02:05:16.977Z,1014.33
2022-12-27T02:06:16.954Z,1014.31
2022-12-27T02:07:16.941Z,1014.29
2022-12-27T02:08:16.930Z,1014.30
2022-12-27T02:09:16.919Z,1014.31
2022-12-27T02:10:16.909Z,1014.30
2022-12-27T02:11:16.944Z,1014.28
2022-12-27T02:12:16.882Z,1014.31
2022-12-27T02:13:16.871Z,1014.29
2022-12-27T02:14:16.861Z,1014.30
2022-12-27T02:15:16.850Z,1014.30
2022-12-27T02:16:16.899Z,1014.32
2022-12-27T02:17:16.841Z,1014.32
2022-12-27T02:18:16.860Z,1014.32
2022-12-27T02:19:16.809Z,1014.34
2022-12-27T02:20:16.809Z,1014.36
2022-12-27T02:21:16.783Z,1014.39
2022-12-27T02:22:16.773Z,1014.41
2022-12-27T02:23:16.794Z,1014.43
2022-12-27T02:24:16.752Z,1014.41
2022-12-27T02:25:16.740Z,1014.40
2022-12-27T02:26:16.729Z,1014.46
2022-12-27T02:27:16.715Z,1014.47
2022-12-27T02:28:16.705Z,1014.46
2022-12-27T02:29:16.706Z,1014.44
2022-12-27T02:30:16.684Z,1014.49
2022-12-27T02:31:16.774Z,1014.47
2022-12-27T02:32:16.665Z,1014.51
2022-12-27T02:33:16.651Z,1014.52
2022-12-27T02:34:16.659Z,1014.50
2022-12-27T02:35:16.655Z,1014.57
2022-12-27T02:36:16.617Z,1014.53
2022-12-27T02:37:16.601Z,1014.55
2022-12-27T02:38:16.592Z,1014.54
2022-12-27T02:39:16.584Z,1014.56
2022-12-27T02:40:16.571Z,1014.52
2022-12-27T02:41:16.574Z,1014.55
2022-12-27T02:42:16.557Z,1014.59
2022-12-27T02:43:16.548Z,1014.58
2022-12-27T02:44:16.539Z,1014.57
2022-12-27T02:45:16.514Z,1014.58
2022-12-27T02:46:21.330Z,1014.55
2022-12-27T02:47:17.515Z,1014.55
2022-12-27T02:48:16.483Z,1014.55
2022-12-27T02:49:16.471Z,1014.59
2022-12-27T02:50:16.480Z,1014.58
2022-12-27T02:51:16.446Z,1014.66
2022-12-27T02:52:16.434Z,1014.64
2022-12-27T02:53:16.429Z,1014.67
2022-12-27T02:54:16.415Z,1014.68
2022-12-27T02:55:16.402Z,1014.67
2022-12-27T02:56:16.391Z,1014.70
2022-12-27T02:57:16.380Z,1014.72
2022-12-27T02:58:16.369Z,1014.75
2022-12-27T02:59:16.386Z,1014.69
2022-12-27T03:00:16.354Z,1014.72
2022-12-27T03:01:16.491Z,1014.77
2022-12-27T03:02:16.606Z,1014.78
2022-12-27T03:03:16.341Z,1014.80
2022-12-27T03:04:16.301Z,1014.82
2022-12-27T03:05:16.294Z,1014.84
2022-12-27T03:06:16.294Z,1014.84
2022-12-27T03:07:16.269Z,1014.89
2022-12-27T03:08:16.255Z,1014.88
2022-12-27T03:09:16.246Z,1014.87
2022-12-27T03:10:16.238Z,1014.93
2022-12-27T03:11:16.263Z,1014.94
2022-12-27T03:12:16.211Z,1014.98
2022-12-27T03:13:16.200Z,1014.98
2022-12-27T03:14:16.193Z,1015.06
2022-12-27T03:15:16.178Z,1014.94
2022-12-27T03:16:16.198Z,1015.03
2022-12-27T03:17:16.176Z,1015.03
2022-12-27T03:18:16.142Z,1015.05
2022-12-27T03:19:16.134Z,1015.03
2022-12-27T03:20:16.123Z,1015.05
2022-12-27T03:21:16.116Z,1015.03
2022-12-27T03:22:16.167Z,1015.08
2022-12-27T03:23:16.092Z,1015.18
2022-12-27T03:24:16.080Z,1015.17
2022-12-27T03:25:16.075Z,1015.21
2022-12-27T03:26:16.058Z,1015.16
2022-12-27T03:27:16.044Z,1015.19
2022-12-27T03:28:16.032Z,1015.14
2022-12-27T03:29:16.027Z,1015.16
2022-12-27T03:30:16.038Z,1015.17
2022-12-27T03:31:16.045Z,1015.10
2022-12-27T03:32:15.989Z,1015.19
2022-12-27T03:33:15.977Z,1015.18
2022-12-27T03:34:15.995Z,1015.10
2022-12-27T03:35:15.960Z,1015.17
2022-12-27T03:36:15.941Z,1015.17
2022-12-27T03:37:15.929Z,1015.14
2022-12-27T03:38:15.935Z,1015.21
2022-12-27T03:39:15.909Z,1015.20
2022-12-27T03:40:15.899Z,1015.26
2022-12-27T03:41:15.893Z,1015.22
2022-12-27T03:42:15.878Z,1015.24
2022-12-27T03:43:15.895Z,1015.29
2022-12-27T03:44:15.861Z,1015.25
2022-12-27T03:45:15.854Z,1015.28
2022-12-27T03:46:15.902Z,1015.31
2022-12-27T03:47:15.839Z,1015.33
2022-12-27T03:48:15.813Z,1015.29
2022-12-27T03:49:15.793Z,1015.29
2022-12-27T03:50:15.784Z,1015.29
2022-12-27T03:51:15.786Z,1015.35
2022-12-27T03:52:15.762Z,1015.34
2022-12-27T03:53:15.762Z,1015.36
2022-12-27T03:54:15.775Z,1015.33
2022-12-27T03:55:15.730Z,1015.32
2022-12-27T03:56:15.724Z,1015.32
2022-12-27T03:57:15.712Z,1015.36
2022-12-27T03:58:15.695Z,1015.32
2022-12-27T03:59:15.691Z,1015.37
2022-12-27T04:00:15.676Z,1015.36
2022-12-27T04:01:15.820Z,1015.39
2022-12-27T04:02:15.808Z,1015.29
2022-12-27T04:03:15.670Z,1015.31
2022-12-27T04:04:15.639Z,1015.34
2022-12-27T04:05:15.655Z,1015.31
2022-12-27T04:06:15.608Z,1015.38
2022-12-27T04:07:15.595Z,1015.31
2022-12-27T04:08:15.583Z,1015.39
2022-12-27T04:09:15.574Z,1015.38
2022-12-27T04:10:15.590Z,1015.39
2022-12-27T04:11:15.565Z,1015.37
2022-12-27T04:12:15.544Z,1015.39
2022-12-27T04:13:15.527Z,1015.40
2022-12-27T04:14:15.516Z,1015.38
2022-12-27T04:15:15.507Z,1015.39
2022-12-27T04:16:15.527Z,1015.40
2022-12-27T04:17:15.533Z,1015.37
2022-12-27T04:18:15.474Z,1015.33
2022-12-27T04:19:15.463Z,1015.38
2022-12-27T04:20:15.450Z,1015.35
2022-12-27T04:21:15.435Z,1015.36
2022-12-27T04:22:15.433Z,1015.35
2022-12-27T04:23:15.437Z,1015.37
2022-12-27T04:24:15.402Z,1015.32
2022-12-27T04:25:15.393Z,1015.36
2022-12-27T04:26:15.401Z,1015.33
2022-12-27T04:27:15.379Z,1015.29
2022-12-27T04:28:15.364Z,1015.31
2022-12-27T04:29:15.355Z,1015.29
2022-12-27T04:30:15.351Z,1015.28
2022-12-27T04:31:15.359Z,1015.34
2022-12-27T04:32:15.313Z,1015.33
2022-12-27T04:33:15.306Z,1015.30
2022-12-27T04:34:15.293Z,1015.32
2022-12-27T04:35:15.284Z,1015.30
2022-12-27T04:36:15.275Z,1015.30
2022-12-27T04:37:15.261Z,1015.29
2022-12-27T04:38:15.255Z,1015.29
2022-12-27T04:39:15.244Z,1015.30
2022-12-27T04:40:15.231Z,1015.33
2022-12-27T04:41:15.243Z,1015.36
2022-12-27T04:42:15.340Z,1015.38
2022-12-27T04:43:15.198Z,1015.40
2022-12-27T04:44:15.183Z,1015.44
2022-12-27T04:45:15.737Z,1015.46
2022-12-27T04:46:15.249Z,1015.46
2022-12-27T04:47:15.163Z,1015.48
2022-12-27T04:48:15.137Z,1015.51
2022-12-27T04:49:15.122Z,1015.51
2022-12-27T04:50:15.113Z,1015.54
2022-12-27T04:51:15.099Z,1015.52
2022-12-27T04:52:15.090Z,1015.54
2022-12-27T04:53:15.083Z,1015.55
2022-12-27T04:54:15.067Z,1015.52
2022-12-27T04:55:15.058Z,1015.51
2022-12-27T04:56:15.050Z,1015.54
2022-12-27T04:57:15.038Z,1015.52
2022-12-27T04:58:15.046Z,1015.53
2022-12-27T04:59:15.028Z,1015.50
2022-12-27T05:00:14.999Z,1015.51
2022-12-27T05:01:14.986Z,1015.48
2022-12-27T05:02:15.087Z,1015.46
2022-12-27T05:03:15.133Z,1015.47
2022-12-27T05:04:14.953Z,1015.46
2022-12-27T05:05:14.948Z,1015.45
2022-12-27T05:06:14.934Z,1015.45
2022-12-27T05:07:14.920Z,1015.48
2022-12-27T05:08:14.910Z,1015.41
2022-12-27T05:09:19.959Z,1015.42
2022-12-27T05:10:15.906Z,1015.41
2022-12-27T05:11:14.887Z,1015.45
2022-12-27T05:12:14.861Z,1015.46
2022-12-27T05:13:14.852Z,1015.42
2022-12-27T05:14:14.858Z,1015.40
2022-12-27T05:15:14.833Z,1015.39
2022-12-27T05:16:14.903Z,1015.40
2022-12-27T05:17:14.820Z,1015.38
2022-12-27T05:18:14.796Z,1015.42
2022-12-27T05:19:14.791Z,1015.46
2022-12-27T05:20:14.774Z,1015.47
2022-12-27T05:21:14.765Z,1015.41
2022-12-27T05:22:14.825Z,1015.47
2022-12-27T05:23:14.744Z,1015.45
2022-12-27T05:24:14.738Z,1015.46
2022-12-27T05:25:14.722Z,1015.38
2022-12-27T05:26:14.707Z,1015.39
2022-12-27T05:27:14.696Z,1015.48
2022-12-27T05:28:14.707Z,1015.48
2022-12-27T05:29:14.674Z,1015.44
2022-12-27T05:30:14.681Z,1015.42
2022-12-27T05:31:14.693Z,1015.44
2022-12-27T05:32:14.656Z,1015.44
2022-12-27T05:33:14.641Z,1015.48
2022-12-27T05:34:14.626Z,1015.50
2022-12-27T05:35:14.604Z,1015.53
2022-12-27T05:36:14.597Z,1015.49
2022-12-27T05:37:14.599Z,1015.59
2022-12-27T05:38:14.571Z,1015.57
2022-12-27T05:39:14.560Z,1015.58
2022-12-27T05:40:14.564Z,1015.63
2022-12-27T05:41:14.555Z,1015.57
2022-12-27T05:42:14.526Z,1015.61
2022-12-27T05:43:14.515Z,1015.59
2022-12-27T05:44:14.504Z,1015.65
2022-12-27T05:45:14.498Z,1015.67
2022-12-27T05:46:14.553Z,1015.69
2022-12-27T05:47:14.475Z,1015.65
2022-12-27T05:48:14.458Z,1015.67
2022-12-27T05:49:14.448Z,1015.71
2022-12-27T05:50:14.445Z,1015.81
2022-12-27T05:51:14.430Z,1015.80
2022-12-27T05:52:14.444Z,1015.82
2022-12-27T05:53:14.409Z,1015.79
2022-12-27T05:54:14.395Z,1015.79
2022-12-27T05:55:14.386Z,1015.76
2022-12-27T05:56:14.376Z,1015.73
2022-12-27T05:57:14.358Z,1015.74
2022-12-27T05:58:14.364Z,1015.77
2022-12-27T05:59:14.336Z,1015.81
2022-12-27T06:00:14.324Z,1015.84
2022-12-27T06:01:14.380Z,1015.87
2022-12-27T06:02:14.514Z,1015.83
2022-12-27T06:03:14.369Z,1015.84
2022-12-27T06:04:14.302Z,1015.88
2022-12-27T06:05:14.269Z,1015.87
2022-12-27T06:06:14.257Z,1015.91
2022-12-27T06:07:14.254Z,1015.87
2022-12-27T06:08:14.238Z,1015.90
2022-12-27T06:09:14.225Z,1015.96
2022-12-27T06:10:14.223Z,1015.95
2022-12-27T06:11:14.203Z,1015.96
2022-12-27T06:12:14.191Z,1015.95
2022-12-27T06:13:14.180Z,1015.99
2022-12-27T06:14:14.168Z,1016.01
2022-12-27T06:15:14.158Z,1015.99
2022-12-27T06:16:14.215Z,1015.99
2022-12-27T06:17:14.144Z,1016.01
2022-12-27T06:18:14.140Z,1016.00
2022-12-27T06:19:14.114Z,1016.01
2022-12-27T06:20:14.105Z,1015.98
2022-12-27T06:21:14.090Z,1015.98
2022-12-27T06:22:14.570Z,1016.01
2022-12-27T06:23:14.067Z,1015.95
2022-12-27T06:24:14.064Z,1015.99
2022-12-27T06:25:14.588Z,1016.00
2022-12-27T06:26:14.036Z,1015.97
2022-12-27T06:27:14.023Z,1016.00
2022-12-27T06:28:14.043Z,1015.97
2022-12-27T06:29:14.005Z,1015.95
2022-12-27T06:30:13.988Z,1015.97
2022-12-27T06:31:14.043Z,1015.92
2022-12-27T06:32:13.985Z,1015.97
2022-12-27T06:33:13.955Z,1015.90
2022-12-27T06:34:13.979Z,1015.94
2022-12-27T06:35:13.945Z,1015.94
2022-12-27T06:36:13.924Z,1015.94
2022-12-27T06:37:13.914Z,1015.96
2022-12-27T06:38:13.901Z,1015.94
2022-12-27T06:39:13.888Z,1015.97
2022-12-27T06:40:13.891Z,1015.91
2022-12-27T06:41:13.866Z,1015.95
2022-12-27T06:42:13.859Z,1015.98
2022-12-27T06:43:13.853Z,1015.95
2022-12-27T06:44:13.832Z,1015.93
2022-12-27T06:45:13.823Z,1015.98
2022-12-27T06:46:17.537Z,1016.02
2022-12-27T06:47:13.804Z,1016.00
2022-12-27T06:48:13.788Z,1016.02
2022-12-27T06:49:13.782Z,1015.98
2022-12-27T06:50:13.787Z,1016.00
2022-12-27T06:51:13.760Z,1015.98
2022-12-27T06:52:13.749Z,1015.98
2022-12-27T06:53:13.732Z,1016.00
2022-12-27T06:54:13.721Z,1015.98
2022-12-27T06:55:13.712Z,1016.02
2022-12-27T06:56:13.700Z,1016.05
2022-12-27T06:57:13.690Z,1016.02
2022-12-27T06:58:13.701Z,1016.05
2022-12-27T06:59:13.664Z,1016.03
2022-12-27T07:00:13.659Z,1016.00
2022-12-27T07:01:13.784Z,1016.05
2022-12-27T07:02:13.812Z,1016.07
2022-12-27T07:03:13.680Z,1016.10
2022-12-27T07:04:13.642Z,1016.19
2022-12-27T07:05:13.598Z,1016.22
2022-12-27T07:06:13.605Z,1016.19
2022-12-27T07:07:15.823Z,1016.20
2022-12-27T07:08:13.564Z,1016.19
2022-12-27T07:09:13.568Z,1016.21
2022-12-27T07:10:13.558Z,1016.20
2022-12-27T07:11:13.534Z,1016.20
2022-12-27T07:12:13.520Z,1016.22
2022-12-27T07:13:13.508Z,1016.22
2022-12-27T07:14:13.500Z,1016.20
2022-12-27T07:15:13.491Z,1016.17
2022-12-27T07:16:13.535Z,1016.20
2022-12-27T07:17:13.462Z,1016.18
2022-12-27T07:18:13.452Z,1016.19
2022-12-27T07:19:13.440Z,1016.23
2022-12-27T07:20:13.440Z,1016.26
2022-12-27T07:21:13.420Z,1016.24
2022-12-27T07:22:13.433Z,1016.29
2022-12-27T07:23:19.115Z,1016.33
2022-12-27T07:24:14.384Z,1016.38
2022-12-27T07:25:13.374Z,1016.35
2022-12-27T07:26:13.365Z,1016.31
2022-12-27T07:27:13.377Z,1016.37
2022-12-27T07:28:13.360Z,1016.43
2022-12-27T07:29:13.332Z,1016.46
2022-12-27T07:30:13.319Z,1016.49
2022-12-27T07:31:13.306Z,1016.50
2022-12-27T07:32:13.300Z,1016.55
2022-12-27T07:33:13.295Z,1016.52
2022-12-27T07:34:13.278Z,1016.54
2022-12-27T07:35:13.268Z,1016.58
2022-12-27T07:36:13.250Z,1016.57
2022-12-27T07:37:13.238Z,1016.63
2022-12-27T07:38:13.244Z,1016.59
2022-12-27T07:39:13.231Z,1016.62
2022-12-27T07:40:13.250Z,1016.61
2022-12-27T07:41:13.195Z,1016.62
2022-12-27T07:42:13.182Z,1016.67
2022-12-27T07:43:13.173Z,1016.61
2022-12-27T07:44:13.166Z,1016.61
2022-12-27T07:45:13.163Z,1016.65
2022-12-27T07:46:13.182Z,1016.63
2022-12-27T07:47:13.137Z,1016.70
2022-12-27T07:48:13.114Z,1016.74
2022-12-27T07:49:17.578Z,1016.73
2022-12-27T07:50:14.091Z,1016.77
2022-12-27T07:51:13.081Z,1016.76
2022-12-27T07:52:13.094Z,1016.82
2022-12-27T07:53:13.067Z,1016.82
2022-12-27T07:54:13.086Z,1016.84
2022-12-27T07:55:13.036Z,1016.81
2022-12-27T07:56:13.044Z,1016.80
2022-12-27T07:57:13.019Z,1016.84
2022-12-27T07:58:13.010Z,1016.84
2022-12-27T07:59:12.996Z,1016.87
2022-12-27T08:00:12.993Z,1016.91
2022-12-27T08:01:13.098Z,1016.90
2022-12-27T08:02:13.091Z,1016.91
2022-12-27T08:03:12.977Z,1016.93
2022-12-27T08:04:12.941Z,1016.92
2022-12-27T08:05:12.925Z,1016.94
2022-12-27T08:06:12.914Z,1016.88
2022-12-27T08:07:12.902Z,1016.89
2022-12-27T08:08:12.889Z,1016.93
2022-12-27T08:09:12.880Z,1016.93
2022-12-27T08:10:12.886Z,1016.92
2022-12-27T08:11:12.862Z,1016.88
2022-12-27T08:12:12.842Z,1016.91
2022-12-27T08:13:12.837Z,1016.93
2022-12-27T08:14:12.830Z,1016.91
2022-12-27T08:15:12.815Z,1016.93
2022-12-27T08:16:12.844Z,1016.92
2022-12-27T08:17:12.786Z,1016.97
2022-12-27T08:18:12.778Z,1017.03
2022-12-27T08:19:12.773Z,1016.96
2022-12-27T08:20:12.756Z,1016.99
2022-12-27T08:21:12.747Z,1017.03
2022-12-27T08:22:12.748Z,1017.03
2022-12-27T08:23:12.727Z,1017.03
2022-12-27T08:24:12.711Z,1017.05
2022-12-27T08:25:12.719Z,1017.09
2022-12-27T08:26:12.715Z,1017.02
2022-12-27T08:27:12.675Z,1017.03
2022-12-27T08:28:12.671Z,1017.06
2022-12-27T08:29:12.655Z,1017.08
2022-12-27T08:30:12.643Z,1017.09
2022-12-27T08:31:12.712Z,1017.04
2022-12-27T08:32:12.621Z,1017.02
2022-12-27T08:33:12.611Z,1017.00
2022-12-27T08:34:12.620Z,1017.01
2022-12-27T08:35:50.387Z,1016.99
2022-12-27T08:36:54.168Z,1017.00
2022-12-27T08:37:13.573Z,1016.98
2022-12-27T08:38:12.563Z,1016.96
2022-12-27T08:39:12.544Z,1016.97
2022-12-27T08:40:12.543Z,1016.98
2022-12-27T08:41:12.526Z,1016.95
2022-12-27T08:42:12.546Z,1016.97
2022-12-27T08:43:12.497Z,1016.95
2022-12-27T08:44:12.485Z,1016.95
2022-12-27T08:45:12.475Z,1016.97
2022-12-27T08:46:12.488Z,1016.94
2022-12-27T08:47:12.455Z,1016.97
2022-12-27T08:48:12.560Z,1016.94
2022-12-27T08:49:12.430Z,1017.01
2022-12-27T08:50:12.418Z,1016.96
2022-12-27T08:51:15.529Z,1016.97
2022-12-27T08:52:13.410Z,1017.02
2022-12-27T08:53:12.384Z,1017.00
2022-12-27T08:54:12.374Z,1017.01
2022-12-27T08:55:12.362Z,1017.04
2022-12-27T08:56:12.350Z,1017.02
2022-12-27T08:57:12.339Z,1017.00
2022-12-27T08:58:16.464Z,1017.05
2022-12-27T08:59:12.316Z,1017.00
2022-12-27T09:00:12.306Z,1017.02
2022-12-27T09:01:12.370Z,1017.05
2022-12-27T09:02:12.385Z,1017.06
2022-12-27T09:03:12.371Z,1017.03
2022-12-27T09:04:12.269Z,1017.08
2022-12-27T09:05:12.258Z,1017.11
2022-12-27T09:06:12.240Z,1017.14
2022-12-27T09:07:12.232Z,1017.15
2022-12-27T09:08:12.222Z,1017.20
2022-12-27T09:09:12.211Z,1017.25
2022-12-27T09:10:12.204Z,1017.25
2022-12-27T09:11:12.184Z,1017.27
2022-12-27T09:12:12.172Z,1017.31
2022-12-27T09:13:12.163Z,1017.31
2022-12-27T09:14:12.170Z,1017.27
2022-12-27T09:15:12.138Z,1017.34
2022-12-27T09:16:12.202Z,1017.31
2022-12-27T09:17:12.115Z,1017.35
2022-12-27T09:18:12.113Z,1017.34
2022-12-27T09:19:12.093Z,1017.38
2022-12-27T09:20:12.082Z,1017.32
2022-12-27T09:21:12.089Z,1017.33
2022-12-27T09:22:12.074Z,1017.28
2022-12-27T09:23:12.048Z,1017.31
2022-12-27T09:24:12.039Z,1017.31
2022-12-27T09:25:12.062Z,1017.29
2022-12-27T09:26:12.019Z,1017.28
2022-12-27T09:27:12.005Z,1017.30
2022-12-27T09:28:12.023Z,1017.36
2022-12-27T09:29:11.980Z,1017.39
2022-12-27T09:30:12.062Z,1017.40
2022-12-27T09:31:12.046Z,1017.40
2022-12-27T09:32:11.951Z,1017.41
2022-12-27T09:33:11.935Z,1017.43
2022-12-27T09:34:11.945Z,1017.42
2022-12-27T09:35:11.918Z,1017.45
2022-12-27T09:36:11.902Z,1017.40
2022-12-27T09:37:11.897Z,1017.38
2022-12-27T09:38:11.882Z,1017.40
2022-12-27T09:39:11.869Z,1017.42
2022-12-27T09:40:11.888Z,1017.35
2022-12-27T09:41:11.847Z,1017.39
2022-12-27T09:42:46.685Z,1017.37
2022-12-27T09:43:20.954Z,1017.39
2022-12-27T09:44:12.819Z,1017.32
2022-12-27T09:45:11.804Z,1017.29
2022-12-27T09:46:11.884Z,1017.28
2022-12-27T09:47:11.781Z,1017.30
2022-12-27T09:48:11.771Z,1017.31
2022-12-27T09:49:11.763Z,1017.30
2022-12-27T09:50:11.769Z,1017.28
2022-12-27T09:51:11.733Z,1017.22
2022-12-27T09:52:11.734Z,1017.32
2022-12-27T09:53:11.721Z,1017.35
2022-12-27T09:54:11.703Z,1017.40
2022-12-27T09:55:11.700Z,1017.34
2022-12-27T09:56:11.690Z,1017.37
2022-12-27T09:57:19.843Z,1017.43
2022-12-27T09:58:12.683Z,1017.41
2022-12-27T09:59:11.644Z,1017.42
2022-12-27T10:00:11.632Z,1017.43
2022-12-27T10:01:11.799Z,1017.37
2022-12-27T10:02:11.806Z,1017.41
2022-12-27T10:03:11.600Z,1017.43
2022-12-27T10:04:11.688Z,1017.34
2022-12-27T10:05:20.836Z,1017.32
2022-12-27T10:06:12.660Z,1017.38
2022-12-27T10:07:11.556Z,1017.36
2022-12-27T10:08:11.554Z,1017.36
2022-12-27T10:09:11.541Z,1017.43
2022-12-27T10:10:11.542Z,1017.39
2022-12-27T10:11:11.513Z,1017.36
2022-12-27T10:12:11.499Z,1017.32
2022-12-27T10:13:11.487Z,1017.39
2022-12-27T10:14:11.480Z,1017.35
2022-12-27T10:15:11.490Z,1017.41
2022-12-27T10:16:11.589Z,1017.43
2022-12-27T10:17:11.445Z,1017.35
2022-12-27T10:18:11.492Z,1017.41
2022-12-27T10:19:11.419Z,1017.41
2022-12-27T10:20:11.409Z,1017.42
2022-12-27T10:21:11.422Z,1017.42
2022-12-27T10:22:11.413Z,1017.39
2022-12-27T10:23:11.395Z,1017.51
2022-12-27T10:24:11.374Z,1017.48
2022-12-27T10:25:11.353Z,1017.39
2022-12-27T10:26:11.342Z,1017.48
2022-12-27T10:27:11.334Z,1017.45
2022-12-27T10:28:11.330Z,1017.52
2022-12-27T10:29:11.313Z,1017.46
2022-12-27T10:30:11.296Z,1017.48
2022-12-27T10:31:11.321Z,1017.41
2022-12-27T10:32:11.273Z,1017.50
2022-12-27T10:33:11.267Z,1017.50
2022-12-27T10:34:11.304Z,1017.55
2022-12-27T10:35:11.239Z,1017.54
2022-12-27T10:36:11.235Z,1017.53
2022-12-27T10:37:11.219Z,1017.56
2022-12-27T10:38:11.207Z,1017.57
2022-12-27T10:39:11.194Z,1017.52
2022-12-27T10:40:11.226Z,1017.58
2022-12-27T10:41:11.175Z,1017.59
2022-12-27T10:42:11.167Z,1017.61
2022-12-27T10:43:11.151Z,1017.59
2022-12-27T10:44:11.142Z,1017.60
2022-12-27T10:45:11.133Z,1017.62
2022-12-27T10:46:11.167Z,1017.64
2022-12-27T10:47:11.214Z,1017.71
2022-12-27T10:48:11.119Z,1017.64
2022-12-27T10:49:20.546Z,1017.70
2022-12-27T10:50:12.101Z,1017.67
2022-12-27T10:51:11.104Z,1017.78
2022-12-27T10:52:11.058Z,1017.72
2022-12-27T10:53:11.041Z,1017.83
2022-12-27T10:54:11.028Z,1017.77
2022-12-27T10:55:11.018Z,1017.80
2022-12-27T10:56:11.006Z,1017.82
2022-12-27T10:57:10.991Z,1017.78
2022-12-27T10:58:10.991Z,1017.84
2022-12-27T10:59:10.995Z,1017.81
2022-12-27T11:00:10.963Z,1017.87
2022-12-27T11:01:10.993Z,1017.80
2022-12-27T11:02:11.076Z,1017.84
2022-12-27T11:03:10.926Z,1017.76
2022-12-27T11:04:17.723Z,1017.86
2022-12-27T11:05:11.902Z,1017.76
2022-12-27T11:06:10.922Z,1017.79
2022-12-27T11:07:10.885Z,1017.76
2022-12-27T11:08:10.873Z,1017.71
2022-12-27T11:09:10.862Z,1017.77
2022-12-27T11:10:10.878Z,1017.68
2022-12-27T11:11:10.839Z,1017.81
2022-12-27T11:12:10.830Z,1017.82
2022-12-27T11:13:10.816Z,1017.79
2022-12-27T11:14:10.808Z,1017.82
2022-12-27T11:15:10.801Z,1017.81
2022-12-27T11:16:10.802Z,1017.81
2022-12-27T11:17:10.774Z,1017.80
2022-12-27T11:18:10.763Z,1017.82
2022-12-27T11:19:10.748Z,1017.76
2022-12-27T11:20:10.740Z,1017.83
2022-12-27T11:21:20.033Z,1017.84
2022-12-27T11:22:11.742Z,1017.82
2022-12-27T11:23:10.752Z,1017.81
2022-12-27T11:24:10.691Z,1017.90
2022-12-27T11:25:10.680Z,1017.88
2022-12-27T11:26:10.673Z,1017.83
2022-12-27T11:27:10.657Z,1017.87
2022-12-27T11:28:10.659Z,1017.85
2022-12-27T11:29:10.635Z,1017.89
2022-12-27T11:30:10.626Z,1017.82
2022-12-27T11:31:10.725Z,1017.86
2022-12-27T11:32:10.601Z,1017.90
2022-12-27T11:33:10.590Z,1017.84
2022-12-27T11:34:10.588Z,1017.86
2022-12-27T11:35:10.566Z,1017.92
2022-12-27T11:36:10.563Z,1017.93
2022-12-27T11:37:10.545Z,1017.91
2022-12-27T11:38:10.556Z,1017.92
2022-12-27T11:39:10.527Z,1017.88
2022-12-27T11:40:10.535Z,1017.88
2022-12-27T11:41:10.499Z,1017.90
2022-12-27T11:42:10.493Z,1017.90
2022-12-27T11:43:10.503Z,1017.92
2022-12-27T11:44:10.469Z,1017.89
2022-12-27T11:45:10.458Z,1017.90
2022-12-27T11:46:10.475Z,1017.94
2022-12-27T11:47:10.471Z,1017.95
2022-12-27T11:48:10.423Z,1017.91
2022-12-27T11:49:10.412Z,1017.92
2022-12-27T11:50:10.401Z,1017.95
2022-12-27T11:51:10.388Z,1017.91
2022-12-27T11:52:10.388Z,1017.89
2022-12-27T11:53:10.379Z,1017.90
2022-12-27T11:54:10.379Z,1017.90
2022-12-27T11:55:10.344Z,1017.85
2022-12-27T11:56:10.336Z,1017.84
2022-12-27T11:57:10.325Z,1017.87
2022-12-27T11:58:10.373Z,1017.85
2022-12-27T11:59:10.318Z,1017.90
2022-12-27T12:00:10.292Z,1017.82
2022-12-27T12:01:10.277Z,1017.81
2022-12-27T12:02:10.358Z,1017.88
2022-12-27T12:03:10.311Z,1017.88
2022-12-27T12:04:10.248Z,1017.86
2022-12-27T12:05:10.234Z,1017.81